sensor_id;sensor_type;location;lat;lon;timestamp;P1;durP1;ratioP1;P2;durP2;ratioP2
1585;SDS011;786;48.718;9.514;2024-03-17T07:56:52;6.53;;;4.40;;
1585;SDS011;786;48.718;9.514;2024-03-17T07:59:18;4.88;;;4.38;;
1585;SDS011;786;48.718;9.514;2024-03-17T08:01:45;5.30;;;4.15;;
1585;SDS011;786;48.718;9.514;2024-03-17T08:04:11;7.13;;;4.13;;
1585;SDS011;786;48.718;9.514;2024-03-17T08:06:38;5.82;;;4.60;;
1585;SDS011;786;48.718;9.514;2024-03-17T08:09:05;5.65;;;5.15;;
1585;SDS011;786;48.718;9.514;2024-03-17T08:11:32;6.03;;;4.95;;
1585;SDS011;786;48.718;9.514;2024-03-17T08:14:00;5.38;;;4.53;;
1585;SDS011;786;48.718;9.514;2024-03-17T08:16:28;4.70;;;4.13;;
1585;SDS011;786;48.718;9.514;2024-03-17T08:18:54;5.63;;;4.95;;
1585;SDS011;786;48.718;9.514;2024-03-17T08:21:21;6.55;;;4.93;;
1585;SDS011;786;48.718;9.514;2024-03-17T08:23:47;6.55;;;4.80;;
1585;SDS011;786;48.718;9.514;2024-03-17T08:26:13;5.45;;;4.25;;
1585;SDS011;786;48.718;9.514;2024-03-17T08:28:40;5.55;;;4.55;;
1585;SDS011;786;48.718;9.514;2024-03-17T08:31:07;5.85;;;5.18;;
1585;SDS011;786;48.718;9.514;2024-03-17T08:33:34;5.07;;;4.63;;
1585;SDS011;786;48.718;9.514;2024-03-17T08:36:01;6.28;;;5.55;;
1585;SDS011;786;48.718;9.514;2024-03-17T08:38:29;5.20;;;4.70;;
1585;SDS011;786;48.718;9.514;2024-03-17T08:40:57;6.28;;;5.68;;
1585;SDS011;786;48.718;9.514;2024-03-17T08:43:24;6.00;;;4.95;;
1585;SDS011;786;48.718;9.514;2024-03-17T08:45:56;5.45;;;4.88;;
1585;SDS011;786;48.718;9.514;2024-03-17T08:48:27;6.53;;;4.80;;
1585;SDS011;786;48.718;9.514;2024-03-17T08:50:55;5.65;;;5.15;;
1585;SDS011;786;48.718;9.514;2024-03-17T08:53:22;5.15;;;4.63;;
1585;SDS011;786;48.718;9.514;2024-03-17T08:55:49;5.75;;;4.55;;
1585;SDS011;786;48.718;9.514;2024-03-17T08:58:16;5.55;;;4.60;;
1585;SDS011;786;48.718;9.514;2024-03-17T09:00:43;5.47;;;4.40;;
1585;SDS011;786;48.718;9.514;2024-03-17T09:03:10;6.15;;;4.60;;
1585;SDS011;786;48.718;9.514;2024-03-17T09:05:39;5.03;;;4.53;;
1585;SDS011;786;48.718;9.514;2024-03-17T09:08:06;5.00;;;4.55;;
1585;SDS011;786;48.718;9.514;2024-03-17T09:10:38;6.30;;;5.68;;
1585;SDS011;786;48.718;9.514;2024-03-17T09:13:05;5.18;;;4.68;;
1585;SDS011;786;48.718;9.514;2024-03-17T09:15:31;5.22;;;3.97;;
1585;SDS011;786;48.718;9.514;2024-03-17T09:17:57;4.68;;;4.28;;
1585;SDS011;786;48.718;9.514;2024-03-17T09:20:24;4.80;;;4.40;;
1585;SDS011;786;48.718;9.514;2024-03-17T09:22:52;4.90;;;4.03;;
1585;SDS011;786;48.718;9.514;2024-03-17T09:29:58;3.78;;;3.08;;
1585;SDS011;786;48.718;9.514;2024-03-17T09:39:49;3.50;;;3.08;;
1585;SDS011;786;48.718;9.514;2024-03-17T09:42:16;3.55;;;3.00;;
1585;SDS011;786;48.718;9.514;2024-03-17T09:44:44;3.05;;;2.75;;
1585;SDS011;786;48.718;9.514;2024-03-17T09:47:12;3.22;;;2.90;;
1585;SDS011;786;48.718;9.514;2024-03-17T09:49:44;3.28;;;2.97;;
1585;SDS011;786;48.718;9.514;2024-03-17T09:52:13;3.90;;;3.28;;
1585;SDS011;786;48.718;9.514;2024-03-17T09:54:45;5.05;;;3.20;;
1585;SDS011;786;48.718;9.514;2024-03-17T09:57:15;3.67;;;3.40;;
1585;SDS011;786;48.718;9.514;2024-03-17T09:59:42;3.40;;;3.00;;
1585;SDS011;786;48.718;9.514;2024-03-17T10:02:09;3.65;;;3.38;;
1585;SDS011;786;48.718;9.514;2024-03-17T10:04:43;5.13;;;3.38;;
1585;SDS011;786;48.718;9.514;2024-03-17T10:07:09;3.38;;;3.17;;
1585;SDS011;786;48.718;9.514;2024-03-17T10:09:36;3.63;;;3.33;;
1585;SDS011;786;48.718;9.514;2024-03-17T10:12:04;3.78;;;3.40;;
1585;SDS011;786;48.718;9.514;2024-03-17T10:14:32;3.33;;;2.53;;
1585;SDS011;786;48.718;9.514;2024-03-17T10:16:58;3.47;;;2.63;;
1585;SDS011;786;48.718;9.514;2024-03-17T10:19:25;4.05;;;2.97;;
1585;SDS011;786;48.718;9.514;2024-03-17T10:21:57;2.45;;;2.25;;
1585;SDS011;786;48.718;9.514;2024-03-17T10:24:25;3.13;;;2.70;;
1585;SDS011;786;48.718;9.514;2024-03-17T10:26:53;4.70;;;2.60;;
1585;SDS011;786;48.718;9.514;2024-03-17T10:29:25;3.20;;;2.88;;
1585;SDS011;786;48.718;9.514;2024-03-17T10:31:56;2.63;;;2.22;;
1585;SDS011;786;48.718;9.514;2024-03-17T10:34:23;4.90;;;3.33;;
1585;SDS011;786;48.718;9.514;2024-03-17T10:36:51;3.25;;;2.63;;
1585;SDS011;786;48.718;9.514;2024-03-17T10:39:22;2.65;;;2.45;;
1585;SDS011;786;48.718;9.514;2024-03-17T10:41:53;3.45;;;3.15;;
1585;SDS011;786;48.718;9.514;2024-03-17T10:44:22;4.10;;;3.67;;
1585;SDS011;786;48.718;9.514;2024-03-17T10:46:48;3.22;;;2.92;;
1585;SDS011;786;48.718;9.514;2024-03-17T10:49:17;4.40;;;4.10;;
1585;SDS011;786;48.718;9.514;2024-03-17T10:51:44;3.13;;;2.90;;
1585;SDS011;786;48.718;9.514;2024-03-17T10:54:13;5.20;;;4.90;;
1585;SDS011;786;48.718;9.514;2024-03-17T10:56:46;2.85;;;2.38;;
1585;SDS011;786;48.718;9.514;2024-03-17T10:59:12;3.35;;;3.05;;
1585;SDS011;786;48.718;9.514;2024-03-17T11:01:39;3.10;;;2.65;;
1585;SDS011;786;48.718;9.514;2024-03-17T11:04:06;2.70;;;2.35;;
1585;SDS011;786;48.718;9.514;2024-03-17T11:06:35;3.03;;;1.88;;
1585;SDS011;786;48.718;9.514;2024-03-17T11:09:02;2.72;;;2.40;;
1585;SDS011;786;48.718;9.514;2024-03-17T11:11:35;2.58;;;2.38;;
1585;SDS011;786;48.718;9.514;2024-03-17T11:16:45;2.72;;;2.40;;
1585;SDS011;786;48.718;9.514;2024-03-17T11:19:14;3.30;;;2.38;;
1585;SDS011;786;48.718;9.514;2024-03-17T11:21:42;2.30;;;2.10;;
1585;SDS011;786;48.718;9.514;2024-03-17T11:24:18;2.40;;;2.15;;
1585;SDS011;786;48.718;9.514;2024-03-17T11:26:45;2.78;;;2.30;;
1585;SDS011;786;48.718;9.514;2024-03-17T11:29:25;2.95;;;2.75;;
1585;SDS011;786;48.718;9.514;2024-03-17T11:31:52;2.13;;;1.83;;
1585;SDS011;786;48.718;9.514;2024-03-17T11:34:30;2.30;;;1.90;;
1585;SDS011;786;48.718;9.514;2024-03-17T11:37:01;4.47;;;3.35;;
1585;SDS011;786;48.718;9.514;2024-03-17T11:39:45;3.88;;;3.10;;
1585;SDS011;786;48.718;9.514;2024-03-17T11:42:21;2.15;;;1.95;;
1585;SDS011;786;48.718;9.514;2024-03-17T11:54:44;2.13;;;1.27;;
1585;SDS011;786;48.718;9.514;2024-03-17T11:57:13;1.70;;;1.60;;
1585;SDS011;786;48.718;9.514;2024-03-17T11:59:39;2.28;;;1.42;;
1585;SDS011;786;48.718;9.514;2024-03-17T12:02:10;5.95;;;2.95;;
1585;SDS011;786;48.718;9.514;2024-03-17T12:04:39;4.25;;;1.70;;
1585;SDS011;786;48.718;9.514;2024-03-17T12:07:08;2.20;;;1.88;;
1585;SDS011;786;48.718;9.514;2024-03-17T12:09:37;2.90;;;1.65;;
1585;SDS011;786;48.718;9.514;2024-03-17T12:12:05;3.08;;;2.17;;
1585;SDS011;786;48.718;9.514;2024-03-17T12:14:33;1.83;;;1.52;;
1585;SDS011;786;48.718;9.514;2024-03-17T12:17:03;1.92;;;1.38;;
1585;SDS011;786;48.718;9.514;2024-03-17T12:19:29;2.05;;;1.60;;
1585;SDS011;786;48.718;9.514;2024-03-17T12:21:56;3.97;;;2.00;;
1585;SDS011;786;48.718;9.514;2024-03-17T12:24:24;3.17;;;1.90;;
1585;SDS011;786;48.718;9.514;2024-03-17T12:26:52;2.25;;;1.42;;
